Pittsburgh, Pennsylvania
Traffic Map
Current Weather Conditions
Pittsburgh, Pennsylvania
Clear
Clear
78°
Feels Like: 79°
Wind Chill: 78° Ceiling: Unl
Heat Index: 79° Visibility: 10mi
Dew Point: 60° Wind: 3mph
Humidity: 54% Direction: 150° (SSE)
Pressure: 30.07in Gusts: 0mph
Raw Report DataKAGC 212253Z 15003KT 10SM CLR 26/16 A3007 RMK AO2 SLP180 T02560156
Traffic Incident Summary
Active as of:
Severity:
Category:
InformationThere was an issue retrieving the traffic information for this location. Please try a different location or try again shortly.
Advertisements